Time;durP1;ratioP1;P1;durP2;ratioP2;P2;SDS_P1;SDS_P2;PMS_P1;PMS_P2;Temp;Humidity;BMP_temperature;BMP_pressure;BME280_temperature;BME280_humidity;BME280_pressure;Samples;Min_cycle;Max_cycle;Signal;HPM_P1;HPM_P2
2022/07/01 00:00:50;;;;;;;15.27;5.05;;;23.20;97.80;;;;;;5093336;28;20071;-77
2022/07/01 00:03:16;;;;;;;14.15;4.25;;;23.20;97.90;;;;;;5093283;28;20040;-77
2022/07/01 00:05:42;;;;;;;14.02;4.80;;;23.30;97.60;;;;;;5092918;28;20031;-77
2022/07/01 00:08:08;;;;;;;9.60;4.70;;;23.30;97.30;;;;;;5090188;28;20032;-77
2022/07/01 00:10:35;;;;;;;8.38;3.92;;;23.40;97.20;;;;;;5092723;28;20035;-77
2022/07/01 00:13:01;;;;;;;10.88;4.30;;;23.30;96.60;;;;;;5093591;28;20031;-77
2022/07/01 00:15:27;;;;;;;7.18;4.05;;;23.40;96.50;;;;;;5094364;28;20028;-77
2022/07/01 00:17:52;;;;;;;10.95;3.78;;;23.40;96.60;;;;;;5094215;28;20377;-77
2022/07/01 00:20:18;;;;;;;8.07;4.43;;;23.40;96.80;;;;;;5094120;28;20031;-77
2022/07/01 00:22:44;;;;;;;11.13;4.65;;;23.30;97.00;;;;;;5093851;28;20085;-77
2022/07/01 00:25:10;;;;;;;12.77;4.53;;;22.90;97.20;;;;;;5093123;28;20048;-77
2022/07/01 00:27:39;;;;;;;9.68;4.90;;;22.70;97.50;;;;;;5092176;28;20035;-77
2022/07/01 00:30:07;;;;;;;10.98;5.30;;;22.60;97.70;;;;;;5093787;28;20433;-77
2022/07/01 00:32:32;;;;;;;8.63;4.50;;;22.60;97.60;;;;;;5093092;28;20097;-77
2022/07/01 00:34:58;;;;;;;9.00;4.78;;;22.60;97.80;;;;;;5094323;28;20059;-76
2022/07/01 00:37:24;;;;;;;9.20;4.18;;;22.50;98.00;;;;;;5087928;28;20039;-77
2022/07/01 00:39:49;;;;;;;14.27;5.03;;;22.40;98.30;;;;;;5089293;28;20039;-77
2022/07/01 00:42:15;;;;;;;8.13;3.90;;;22.30;98.40;;;;;;5089370;28;20533;-77
2022/07/01 00:44:40;;;;;;;7.93;4.32;;;22.00;99.30;;;;;;5094191;28;20067;-76
2022/07/01 00:47:11;;;;;;;10.95;4.40;;;22.00;99.40;;;;;;5092233;28;20543;-76
2022/07/01 00:49:37;;;;;;;12.10;4.28;;;22.00;99.60;;;;;;5094056;28;20020;-77
2022/07/01 00:52:05;;;;;;;8.77;4.38;;;22.00;99.80;;;;;;5092627;28;20032;-77
2022/07/01 00:54:32;;;;;;;11.95;5.95;;;22.40;99.10;;;;;;5093545;28;20036;-77
2022/07/01 00:56:58;;;;;;;11.15;4.72;;;22.60;98.70;;;;;;5092659;28;20039;-77
2022/07/01 00:59:25;;;;;;;12.18;4.57;;;22.30;99.30;;;;;;5086384;28;20024;-77
2022/07/01 01:01:50;;;;;;;11.95;4.97;;;22.30;99.20;;;;;;5088457;28;20406;-77
2022/07/01 01:04:16;;;;;;;9.43;4.88;;;22.30;99.20;;;;;;5090703;28;20043;-77
2022/07/01 01:06:42;;;;;;;9.75;4.43;;;22.30;99.10;;;;;;5093966;28;21585;-77
2022/07/01 01:09:07;;;;;;;9.27;4.25;;;22.20;99.20;;;;;;5092838;28;20466;-77
2022/07/01 01:11:33;;;;;;;9.13;4.95;;;22.30;98.60;;;;;;5092265;28;20533;-77
2022/07/01 01:13:59;;;;;;;11.30;4.63;;;22.20;98.40;;;;;;5093631;28;20079;-77
2022/07/01 01:16:25;;;;;;;9.60;3.92;;;22.30;98.30;;;;;;5086972;28;20020;-77
2022/07/01 01:18:52;;;;;;;7.10;4.45;;;22.30;98.60;;;;;;5093607;28;20389;-77
2022/07/01 01:21:18;;;;;;;11.35;4.07;;;22.20;98.80;;;;;;5092016;28;20032;-76
2022/07/01 01:23:44;;;;;;;7.25;4.47;;;22.10;99.30;;;;;;5093291;28;20024;-77
2022/07/01 01:26:17;;;;;;;11.77;4.07;;;22.00;99.90;;;;;;5091754;28;20036;-76
2022/07/01 01:28:42;;;;;;;14.53;5.17;;;21.90;99.90;;;;;;5093045;28;20032;-77
2022/07/01 01:31:08;;;;;;;9.18;4.35;;;22.00;99.90;;;;;;5090338;28;20806;-76
2022/07/01 01:33:34;;;;;;;8.82;4.25;;;22.10;99.80;;;;;;5092220;28;20032;-76
2022/07/01 01:35:59;;;;;;;7.28;4.65;;;22.10;99.80;;;;;;5091952;28;20043;-76
2022/07/01 01:38:25;;;;;;;10.68;5.13;;;22.20;99.90;;;;;;5090419;28;20055;-77
2022/07/01 01:40:51;;;;;;;9.32;4.80;;;22.20;99.90;;;;;;5093366;28;20114;-77
2022/07/01 01:43:16;;;;;;;14.52;5.22;;;22.20;99.80;;;;;;5091111;28;20375;-77
2022/07/01 01:45:42;;;;;;;8.48;4.68;;;22.30;99.20;;;;;;5093154;28;20043;-77
2022/07/01 01:48:08;;;;;;;9.82;5.28;;;22.30;99.20;;;;;;5090552;28;20028;-76
2022/07/01 01:50:33;;;;;;;12.60;5.25;;;22.20;99.80;;;;;;5092406;28;20131;-77
2022/07/01 01:52:59;;;;;;;12.27;4.88;;;22.40;99.10;;;;;;5091087;28;20032;-77
2022/07/01 01:55:24;;;;;;;10.65;4.68;;;22.50;99.00;;;;;;5093275;28;20028;-76
2022/07/01 01:57:50;;;;;;;7.85;4.60;;;22.50;98.90;;;;;;5089870;28;20145;-77
2022/07/01 02:00:17;;;;;;;12.38;5.50;;;22.60;98.70;;;;;;5091142;28;20035;-77
2022/07/01 02:02:42;;;;;;;10.77;4.80;;;22.40;99.40;;;;;;5091176;28;20399;-77
2022/07/01 02:05:11;;;;;;;12.18;4.90;;;22.30;99.60;;;;;;5091625;28;20070;-76
2022/07/01 02:07:37;;;;;;;8.75;4.28;;;22.20;99.90;;;;;;5089080;28;20432;-77
2022/07/01 02:10:03;;;;;;;11.27;5.78;;;22.10;99.80;;;;;;5091645;28;20040;-76
2022/07/01 02:12:29;;;;;;;10.82;4.65;;;22.00;99.90;;;;;;5091743;28;20024;-77
2022/07/01 02:14:55;;;;;;;9.45;4.57;;;22.10;99.60;;;;;;5091436;28;20032;-77
2022/07/01 02:17:20;;;;;;;9.70;4.90;;;22.00;99.90;;;;;;5092135;28;20790;-77
2022/07/01 02:19:46;;;;;;;9.63;4.70;;;22.00;99.90;;;;;;5090634;28;20035;-77
2022/07/01 02:22:11;;;;;;;11.18;5.38;;;22.00;99.70;;;;;;5089730;28;20031;-77
2022/07/01 02:24:37;;;;;;;8.40;4.07;;;22.00;99.80;;;;;;5089388;28;20135;-77
2022/07/01 02:27:03;;;;;;;10.00;4.93;;;22.00;99.90;;;;;;5089685;28;20036;-77
2022/07/01 02:29:29;;;;;;;10.65;5.28;;;22.00;99.90;;;;;;5088868;28;20031;-77
2022/07/01 02:31:54;;;;;;;11.13;5.95;;;22.00;99.90;;;;;;5091501;28;20100;-76
2022/07/01 02:34:20;;;;;;;13.57;5.75;;;22.10;99.90;;;;;;5091391;28;20070;-76
2022/07/01 02:36:47;;;;;;;8.20;4.70;;;22.00;99.90;;;;;;5091908;28;20048;-77
2022/07/01 02:39:13;;;;;;;11.80;6.20;;;22.10;99.90;;;;;;5090642;28;20389;-77
2022/07/01 02:44:22;;;;;;;11.10;5.72;;;22.10;99.90;;;;;;5091208;28;20137;-76
2022/07/01 02:46:48;;;;;;;11.77;5.93;;;22.10;99.90;;;;;;5088851;28;20465;-77
2022/07/01 02:49:15;;;;;;;13.63;6.30;;;22.20;99.90;;;;;;5090945;28;20535;-77
2022/07/01 02:51:40;;;;;;;13.45;6.05;;;22.10;99.90;;;;;;5090696;28;20050;-77
2022/07/01 02:54:06;;;;;;;14.40;5.90;;;22.00;99.90;;;;;;5091134;28;20466;-77
2022/07/01 02:56:31;;;;;;;14.25;5.35;;;21.90;99.90;;;;;;5088428;28;20043;-76
2022/07/01 02:58:57;;;;;;;11.80;6.60;;;22.10;99.90;;;;;;5089911;28;20032;-77
2022/07/01 03:01:23;;;;;;;15.73;6.38;;;22.30;99.90;;;;;;5089198;28;20032;-75
2022/07/01 03:03:50;;;;;;;12.15;5.82;;;22.30;99.90;;;;;;5084585;28;20032;-76
2022/07/01 03:06:15;;;;;;;10.10;5.55;;;22.30;99.90;;;;;;5087200;28;20035;-76
2022/07/01 03:08:41;;;;;;;14.23;5.60;;;22.20;99.90;;;;;;5084183;28;20198;-76
2022/07/01 03:11:07;;;;;;;10.32;5.95;;;22.20;99.90;;;;;;5086804;28;20040;-76
2022/07/01 03:13:32;;;;;;;9.75;5.45;;;22.10;99.90;;;;;;5084828;28;20028;-77
2022/07/01 03:15:58;;;;;;;13.18;6.65;;;22.00;99.90;;;;;;5086297;28;20032;-76
2022/07/01 03:18:24;;;;;;;13.73;5.82;;;21.90;99.90;;;;;;5081605;28;20036;-75
2022/07/01 03:20:51;;;;;;;19.40;6.28;;;21.80;99.90;;;;;;5084663;28;20071;-75
2022/07/01 03:23:17;;;;;;;9.63;5.97;;;21.90;99.90;;;;;;5084463;28;20036;-74
2022/07/01 03:25:42;;;;;;;10.70;6.78;;;21.90;99.90;;;;;;5085784;28;20047;-75
2022/07/01 03:28:08;;;;;;;14.95;6.28;;;21.90;99.90;;;;;;5085672;28;20042;-75
2022/07/01 03:30:34;;;;;;;10.75;5.82;;;21.80;99.90;;;;;;5082752;28;20036;-75
2022/07/01 03:33:00;;;;;;;15.82;5.78;;;21.90;99.90;;;;;;5087498;28;20028;-75
2022/07/01 03:35:45;;;;;;;12.95;6.00;;;21.80;99.90;;;;;;5086020;28;20032;-75
2022/07/01 03:38:11;;;;;;;10.13;5.20;;;21.70;99.90;;;;;;5086982;28;20032;-75
2022/07/01 03:40:37;;;;;;;9.95;6.07;;;21.60;99.90;;;;;;5085847;28;20036;-75
2022/07/01 03:43:04;;;;;;;9.90;5.85;;;21.60;99.90;;;;;;5087767;28;20063;-74
2022/07/01 03:45:30;;;;;;;10.93;5.13;;;21.50;99.90;;;;;;5084280;28;20036;-75
2022/07/01 03:47:56;;;;;;;14.02;7.15;;;21.60;99.90;;;;;;5079972;28;20109;-75
2022/07/01 03:50:23;;;;;;;11.48;5.95;;;21.60;99.90;;;;;;5082924;28;20547;-75
2022/07/01 03:54:29;;;;;;;10.48;6.88;;;21.50;99.90;;;;;;5087205;28;21145;-75
2022/07/01 03:55:35;;;;;;;12.60;5.22;;;21.50;99.90;;;;;;5085005;28;20131;-75
2022/07/01 03:58:00;;;;;;;11.32;5.97;;;21.60;99.90;;;;;;5085443;28;20116;-74
2022/07/01 04:00:27;;;;;;;14.52;6.95;;;21.70;99.90;;;;;;5081607;28;20059;-75
2022/07/01 04:02:53;;;;;;;11.00;6.63;;;21.90;99.90;;;;;;5087713;28;20024;-75
2022/07/01 04:05:18;;;;;;;9.23;5.88;;;21.70;99.90;;;;;;5082174;28;20032;-75
2022/07/01 04:07:44;;;;;;;10.73;5.90;;;21.80;99.90;;;;;;5088082;28;20032;-75
2022/07/01 04:10:10;;;;;;;10.95;6.10;;;21.70;99.90;;;;;;5086304;28;20036;-75
2022/07/01 04:12:35;;;;;;;8.85;5.72;;;21.90;99.90;;;;;;5087507;28;20067;-75
2022/07/01 04:15:02;;;;;;;13.15;6.10;;;21.80;99.90;;;;;;5085267;28;20194;-75
2022/07/01 04:17:28;;;;;;;13.60;6.55;;;21.70;99.90;;;;;;5087516;28;20028;-75
2022/07/01 04:19:53;;;;;;;13.43;6.28;;;21.80;99.90;;;;;;5086153;28;20478;-75
2022/07/01 04:22:35;;;;;;;10.07;5.18;;;21.80;99.90;;;;;;5084536;28;20067;-75
2022/07/01 04:25:03;;;;;;;11.15;5.93;;;21.90;99.90;;;;;;5085794;28;20038;-75
2022/07/01 04:27:30;;;;;;;16.27;6.30;;;22.00;99.90;;;;;;5083798;28;20147;-75
2022/07/01 04:29:56;;;;;;;12.52;5.82;;;22.00;99.90;;;;;;5084032;28;20115;-75
2022/07/01 04:32:22;;;;;;;12.07;5.95;;;22.00;99.90;;;;;;5086924;28;20032;-75
2022/07/01 04:34:48;;;;;;;17.88;6.45;;;21.90;99.90;;;;;;5086100;28;20039;-75
2022/07/01 04:37:14;;;;;;;12.57;6.55;;;21.90;99.90;;;;;;5087589;28;20075;-75
2022/07/01 04:39:40;;;;;;;12.82;6.95;;;21.90;99.90;;;;;;5083098;28;20024;-75
2022/07/01 04:42:05;;;;;;;10.80;5.95;;;22.00;99.90;;;;;;5087118;28;20600;-75
2022/07/01 04:44:33;;;;;;;13.38;6.60;;;22.00;99.90;;;;;;5085498;28;20481;-75
2022/07/01 04:47:00;;;;;;;14.93;6.30;;;22.00;99.90;;;;;;5082690;28;20059;-75
2022/07/01 04:49:27;;;;;;;9.25;5.68;;;22.00;99.90;;;;;;5081909;28;20024;-75
2022/07/01 04:51:53;;;;;;;12.95;6.78;;;22.10;99.90;;;;;;5086847;28;20038;-75
2022/07/01 04:54:19;;;;;;;12.18;5.95;;;21.90;99.90;;;;;;5085711;28;20629;-75
2022/07/01 04:56:45;;;;;;;12.50;5.85;;;22.00;99.90;;;;;;5082654;28;20036;-75
2022/07/01 04:59:12;;;;;;;15.25;6.35;;;21.80;99.90;;;;;;5085716;28;20130;-75
2022/07/01 05:01:38;;;;;;;18.95;7.00;;;21.90;99.90;;;;;;5085380;28;20670;-75
2022/07/01 05:04:03;;;;;;;9.98;5.68;;;21.90;99.90;;;;;;5087119;28;20046;-76
2022/07/01 05:06:29;;;;;;;11.40;6.13;;;21.80;99.90;;;;;;5084103;28;20020;-75
2022/07/01 05:08:55;;;;;;;11.98;5.78;;;21.70;99.90;;;;;;5081576;28;20524;-75
2022/07/01 05:11:21;;;;;;;13.70;5.75;;;21.90;99.90;;;;;;5084268;28;20024;-75
2022/07/01 05:13:46;;;;;;;10.43;5.55;;;21.90;99.90;;;;;;5076043;28;20024;-75
2022/07/01 05:16:12;;;;;;;11.85;6.03;;;22.00;99.90;;;;;;5084895;28;20028;-76
2022/07/01 05:24:07;;;;;;;12.98;6.75;;;22.10;99.90;;;;;;5076547;28;19974;-75
2022/07/01 05:26:33;;;;;;;11.50;5.55;;;22.30;99.90;;;;;;5080254;28;20028;-75
2022/07/01 05:28:59;;;;;;;14.60;6.80;;;22.40;99.90;;;;;;5083685;28;20036;-75
2022/07/01 05:31:25;;;;;;;13.02;6.10;;;22.40;99.90;;;;;;5080326;28;20642;-72
2022/07/01 05:33:50;;;;;;;11.02;6.20;;;22.30;99.90;;;;;;5087972;28;20032;-74
2022/07/01 05:36:16;;;;;;;9.77;5.97;;;22.40;99.90;;;;;;5084547;28;20097;-73
2022/07/01 05:38:42;;;;;;;15.95;6.18;;;22.40;99.90;;;;;;5084965;28;20032;-75
2022/07/01 05:41:08;;;;;;;11.60;6.10;;;22.40;99.90;;;;;;5077329;28;20033;-75
2022/07/01 05:43:34;;;;;;;9.10;6.35;;;22.50;99.90;;;;;;5085135;28;20055;-75
2022/07/01 05:46:00;;;;;;;12.20;6.95;;;22.50;99.90;;;;;;5090301;28;20579;-74
2022/07/01 05:48:26;;;;;;;12.10;6.10;;;22.40;99.90;;;;;;5083002;28;20498;-78
2022/07/01 05:50:52;;;;;;;12.23;5.90;;;22.50;99.90;;;;;;5084570;28;20103;-78
2022/07/01 05:53:17;;;;;;;17.52;6.18;;;22.70;99.90;;;;;;5085462;28;20610;-78
2022/07/01 05:55:43;;;;;;;10.10;5.72;;;22.70;99.90;;;;;;5084893;28;20060;-78
2022/07/01 05:58:13;;;;;;;11.32;6.40;;;22.80;99.90;;;;;;5084759;28;20778;-77
2022/07/01 06:00:42;;;;;;;13.38;6.18;;;22.80;99.90;;;;;;5085148;28;20036;-78
2022/07/01 06:03:10;;;;;;;11.50;6.32;;;22.90;99.90;;;;;;5082997;28;20460;-78
2022/07/01 06:05:35;;;;;;;10.35;5.53;;;22.90;99.90;;;;;;5084253;28;20077;-78
2022/07/01 06:08:01;;;;;;;11.88;5.47;;;22.60;99.90;;;;;;5084634;28;20416;-78
2022/07/01 06:10:27;;;;;;;9.90;5.57;;;22.80;99.90;;;;;;5084317;28;20055;-78
2022/07/01 06:12:52;;;;;;;10.50;6.22;;;22.80;99.90;;;;;;5084486;28;20028;-78
2022/07/01 06:15:18;;;;;;;10.18;6.13;;;22.90;99.90;;;;;;5084423;28;20071;-77
2022/07/01 06:17:44;;;;;;;10.38;4.95;;;23.00;99.90;;;;;;5077025;28;20047;-78
2022/07/01 06:20:10;;;;;;;11.90;6.82;;;23.00;99.90;;;;;;5079247;28;20034;-78
2022/07/01 06:22:35;;;;;;;12.20;5.93;;;23.00;99.90;;;;;;5082780;28;20096;-77
2022/07/01 06:25:02;;;;;;;19.35;5.75;;;22.90;99.90;;;;;;5084009;28;20074;-78
2022/07/01 06:27:28;;;;;;;10.65;5.75;;;22.90;99.90;;;;;;5084357;28;20494;-78
2022/07/01 06:29:53;;;;;;;13.38;5.97;;;22.80;99.90;;;;;;5084018;28;20508;-78
2022/07/01 06:32:19;;;;;;;12.32;5.63;;;22.90;99.90;;;;;;5084872;28;20028;-78
2022/07/01 06:34:45;;;;;;;10.82;6.13;;;22.70;99.90;;;;;;5084700;28;20542;-78
2022/07/01 06:37:11;;;;;;;12.30;6.43;;;22.80;99.90;;;;;;5082962;28;20572;-78
2022/07/01 06:39:38;;;;;;;10.27;6.03;;;23.00;99.90;;;;;;5077575;28;20024;-78
2022/07/01 06:42:04;;;;;;;14.10;7.15;;;23.10;99.90;;;;;;5083755;28;20028;-77
2022/07/01 06:44:29;;;;;;;10.07;5.15;;;23.30;99.90;;;;;;5084199;28;20032;-78
2022/07/01 06:46:55;;;;;;;13.15;7.15;;;23.50;99.90;;;;;;5072695;28;20039;-78
2022/07/01 06:49:20;;;;;;;14.23;6.10;;;23.50;99.90;;;;;;5081907;28;20067;-74
2022/07/01 06:51:46;;;;;;;16.05;7.95;;;23.60;99.90;;;;;;5081223;28;20028;-73
2022/07/01 06:54:12;;;;;;;13.40;7.45;;;23.70;99.90;;;;;;5070193;28;20099;-73
2022/07/01 06:56:38;;;;;;;13.40;6.45;;;23.70;99.90;;;;;;5077481;28;20120;-73
2022/07/01 06:59:03;;;;;;;12.23;5.97;;;23.70;99.80;;;;;;5082749;28;20077;-74
2022/07/01 07:01:29;;;;;;;15.20;6.40;;;23.80;99.60;;;;;;5077707;28;20027;-73
2022/07/01 07:03:55;;;;;;;19.75;6.80;;;23.90;99.60;;;;;;5076163;28;20458;-73
2022/07/01 07:06:21;;;;;;;15.18;6.22;;;24.20;99.30;;;;;;5081483;28;20097;-73
2022/07/01 07:08:46;;;;;;;16.67;6.78;;;24.60;98.50;;;;;;5084368;28;20036;-73
2022/07/01 07:11:14;;;;;;;17.27;6.43;;;25.00;98.90;;;;;;5082328;28;20028;-74
2022/07/01 07:13:41;;;;;;;16.55;7.03;;;25.20;98.30;;;;;;5082976;28;20526;-73
2022/07/01 07:16:06;;;;;;;12.35;6.38;;;25.30;97.80;;;;;;5084742;28;20109;-74
2022/07/01 07:18:32;;;;;;;12.63;6.03;;;25.30;98.60;;;;;;5082220;28;20062;-74
2022/07/01 07:20:58;;;;;;;10.82;5.90;;;25.50;97.70;;;;;;5083067;28;20042;-73
2022/07/01 07:23:23;;;;;;;12.27;6.70;;;25.50;97.30;;;;;;5083889;28;20039;-74
2022/07/01 07:25:49;;;;;;;9.82;6.00;;;25.80;97.50;;;;;;5084129;28;20074;-74
2022/07/01 07:28:15;;;;;;;11.27;5.63;;;25.90;96.90;;;;;;5082595;28;20082;-74
2022/07/01 07:30:40;;;;;;;13.07;6.35;;;26.20;96.90;;;;;;5083602;28;20047;-73
2022/07/01 07:33:06;;;;;;;13.10;5.60;;;26.20;96.50;;;;;;5079547;28;20032;-73
2022/07/01 07:35:31;;;;;;;16.77;5.55;;;26.70;96.40;;;;;;5084052;28;20398;-73
2022/07/01 07:37:57;;;;;;;11.02;5.82;;;27.10;95.50;;;;;;5087471;28;20024;-73
2022/07/01 07:40:24;;;;;;;13.85;5.50;;;28.00;94.50;;;;;;5087794;28;20028;-74
2022/07/01 07:42:50;;;;;;;13.10;5.95;;;28.80;93.80;;;;;;5088178;28;20377;-73
2022/07/01 07:45:16;;;;;;;10.13;5.32;;;29.40;92.70;;;;;;5085721;28;20040;-74
2022/07/01 07:47:54;;;;;;;14.50;7.15;;;29.30;92.60;;;;;;5087592;28;20716;-73
2022/07/01 07:50:21;;;;;;;9.18;4.75;;;28.00;93.20;;;;;;5087446;28;20028;-73
2022/07/01 07:52:46;;;;;;;8.75;4.68;;;27.40;93.90;;;;;;5088106;28;20043;-73
2022/07/01 07:55:12;;;;;;;10.27;5.60;;;27.30;94.20;;;;;;5084425;28;20032;-73
2022/07/01 07:57:39;;;;;;;8.77;4.97;;;27.50;94.40;;;;;;5086609;28;20031;-74
2022/07/01 08:00:10;;;;;;;11.73;4.97;;;27.50;94.50;;;;;;5087160;28;20085;-73
2022/07/01 08:02:35;;;;;;;11.70;5.60;;;27.30;94.20;;;;;;5084317;28;20086;-73
2022/07/01 08:05:01;;;;;;;8.70;4.82;;;27.20;94.60;;;;;;5086822;28;20182;-73
2022/07/01 08:07:28;;;;;;;12.77;5.38;;;27.40;94.10;;;;;;5085197;28;20718;-73
2022/07/01 08:09:53;;;;;;;9.07;4.70;;;27.70;94.20;;;;;;5086797;28;20158;-73
2022/07/01 08:12:19;;;;;;;10.45;5.80;;;27.00;94.30;;;;;;5087299;28;20127;-74
2022/07/01 08:14:45;;;;;;;11.63;5.93;;;27.40;94.50;;;;;;5087406;28;20479;-73
2022/07/01 08:17:10;;;;;;;13.20;5.80;;;27.30;94.30;;;;;;5086293;28;20043;-74
2022/07/01 08:19:36;;;;;;;13.25;5.97;;;26.90;95.10;;;;;;5082581;28;20452;-73
2022/07/01 08:22:02;;;;;;;8.38;5.30;;;27.20;94.70;;;;;;5086700;28;20543;-73
2022/07/01 08:24:27;;;;;;;14.70;5.53;;;27.50;94.50;;;;;;5085998;28;20606;-73
2022/07/01 08:26:53;;;;;;;11.20;5.38;;;27.70;94.60;;;;;;5086745;28;20036;-73
2022/07/01 08:29:19;;;;;;;14.57;5.57;;;28.00;94.00;;;;;;5087186;28;20116;-74
2022/07/01 08:31:44;;;;;;;13.75;6.18;;;28.30;93.60;;;;;;5086689;28;20051;-74
2022/07/01 08:34:10;;;;;;;15.18;5.57;;;28.50;93.20;;;;;;5087099;28;20851;-73
2022/07/01 08:36:36;;;;;;;8.45;5.28;;;28.70;93.40;;;;;;5083556;28;20036;-73
2022/07/01 08:39:02;;;;;;;9.32;4.97;;;28.90;93.20;;;;;;5086283;28;20032;-74
2022/07/01 08:41:27;;;;;;;10.63;5.78;;;28.50;93.10;;;;;;5087344;28;20067;-74
2022/07/01 08:43:53;;;;;;;11.45;5.90;;;28.60;93.40;;;;;;5086174;28;20063;-73
2022/07/01 08:46:19;;;;;;;10.45;5.50;;;28.80;93.40;;;;;;5086596;28;20068;-74
2022/07/01 08:48:45;;;;;;;11.70;5.30;;;29.00;93.60;;;;;;5086906;28;20119;-73
2022/07/01 08:51:11;;;;;;;11.73;5.57;;;28.60;93.20;;;;;;5087129;28;20454;-74
2022/07/01 08:53:37;;;;;;;11.40;5.85;;;28.90;93.30;;;;;;5084718;28;20048;-73
2022/07/01 08:58:51;;;;;;;10.98;5.35;;;28.70;93.30;;;;;;5086389;28;20453;-73
2022/07/01 09:01:21;;;;;;;12.18;5.47;;;29.00;93.50;;;;;;5084899;28;20347;-73
2022/07/01 09:03:47;;;;;;;13.52;5.80;;;28.90;93.70;;;;;;5085331;28;20063;-73
2022/07/01 09:06:17;;;;;;;13.90;5.60;;;28.80;93.30;;;;;;5086861;28;20454;-73
2022/07/01 09:08:43;;;;;;;12.32;5.32;;;28.50;93.40;;;;;;5084795;28;20024;-73
2022/07/01 09:11:24;;;;;;;12.02;6.60;;;28.20;93.50;;;;;;5082063;28;20371;-74
2022/07/01 09:14:10;;;;;;;15.80;7.13;;;28.10;93.90;;;;;;5085987;28;20105;-73
2022/07/01 09:16:40;;;;;;;12.32;6.22;;;28.00;93.60;;;;;;5083824;28;20497;-73
2022/07/01 09:19:06;;;;;;;13.55;6.30;;;27.80;94.00;;;;;;5086125;28;20103;-73
2022/07/01 09:21:32;;;;;;;9.73;6.03;;;27.90;93.90;;;;;;5085978;28;20564;-74
2022/07/01 09:24:03;;;;;;;9.07;5.40;;;27.90;93.70;;;;;;5085804;28;20051;-73
2022/07/01 09:26:29;;;;;;;10.85;5.32;;;27.70;94.00;;;;;;5085674;28;20408;-73
2022/07/01 09:28:56;;;;;;;11.20;5.80;;;27.80;94.20;;;;;;5077095;28;20063;-73
2022/07/01 09:31:29;;;;;;;13.95;5.40;;;27.80;94.20;;;;;;5085561;28;20063;-74
2022/07/01 09:34:08;;;;;;;16.20;6.32;;;27.70;94.50;;;;;;5085306;28;20088;-73
2022/07/01 09:36:40;;;;;;;11.25;5.43;;;27.90;94.80;;;;;;5085241;28;20027;-73
2022/07/01 09:39:06;;;;;;;8.55;5.63;;;28.10;94.50;;;;;;5083676;28;20024;-73
2022/07/01 09:41:38;;;;;;;11.93;5.60;;;28.20;94.50;;;;;;5085502;28;20081;-73
2022/07/01 09:44:06;;;;;;;12.10;5.35;;;28.30;94.30;;;;;;5084907;28;20028;-73
2022/07/01 09:46:31;;;;;;;14.55;6.30;;;28.40;94.20;;;;;;5085087;28;20043;-73
2022/07/01 09:48:57;;;;;;;10.30;5.13;;;28.50;93.80;;;;;;5085129;28;20032;-73
2022/07/01 09:51:22;;;;;;;12.57;6.60;;;28.50;93.60;;;;;;5085433;28;20108;-73
2022/07/01 09:53:48;;;;;;;10.38;5.53;;;28.30;93.40;;;;;;5085149;28;20040;-73
2022/07/01 09:56:14;;;;;;;14.07;5.90;;;28.40;93.80;;;;;;5086610;28;20039;-78
2022/07/01 09:58:42;;;;;;;11.63;5.32;;;28.30;93.60;;;;;;5084429;28;20067;-73
2022/07/01 10:01:08;;;;;;;16.25;5.85;;;28.30;93.80;;;;;;5082856;28;20043;-73
2022/07/01 10:03:39;;;;;;;10.10;4.95;;;28.30;93.70;;;;;;5082848;28;20062;-74
2022/07/01 10:06:07;;;;;;;10.88;5.88;;;28.30;93.70;;;;;;5085362;28;20032;-74
2022/07/01 10:08:42;;;;;;;13.55;5.50;;;28.30;94.00;;;;;;5081115;28;20042;-75
2022/07/01 10:11:39;;;;;;;11.15;5.35;;;28.40;93.90;;;;;;5085253;28;20072;-74
2022/07/01 10:14:07;;;;;;;9.85;4.30;;;28.30;93.90;;;;;;5085089;28;20050;-75
2022/07/01 10:16:35;;;;;;;10.20;3.60;;;28.30;93.10;;;;;;5084769;28;20039;-75
2022/07/01 10:19:25;;;;;;;6.63;3.50;;;28.40;92.70;;;;;;5083608;28;20039;-75
2022/07/01 10:21:56;;;;;;;6.90;3.33;;;28.50;92.50;;;;;;5084805;28;20031;-75
2022/07/01 10:24:23;;;;;;;15.35;3.63;;;28.60;91.20;;;;;;5084451;28;20626;-75
2022/07/01 10:26:49;;;;;;;11.23;3.10;;;29.00;90.90;;;;;;5085446;28;20081;-75
2022/07/01 10:29:35;;;;;;;9.10;3.28;;;29.80;90.20;;;;;;5084390;28;20035;-75
2022/07/01 10:32:02;;;;;;;8.00;2.80;;;30.10;88.70;;;;;;5083243;28;20055;-75
2022/07/01 10:34:39;;;;;;;9.02;3.67;;;30.00;88.60;;;;;;5084732;28;20066;-75
2022/07/01 10:37:08;;;;;;;7.40;3.03;;;30.10;88.50;;;;;;5079461;28;20102;-75
2022/07/01 10:40:00;;;;;;;10.65;2.72;;;30.40;87.30;;;;;;5083203;28;20027;-75
2022/07/01 10:42:30;;;;;;;7.78;3.30;;;30.20;86.60;;;;;;5083918;28;20545;-75
2022/07/01 10:45:08;;;;;;;8.05;3.15;;;30.00;86.60;;;;;;5081085;28;20046;-75
2022/07/01 10:47:34;;;;;;;9.77;2.97;;;30.10;87.30;;;;;;5081658;28;20636;-75
2022/07/01 10:50:11;;;;;;;7.93;3.22;;;30.80;86.10;;;;;;5085826;28;20054;-75
2022/07/01 10:52:38;;;;;;;10.35;4.00;;;31.20;86.00;;;;;;5083167;28;20107;-75
2022/07/01 10:55:07;;;;;;;10.55;2.70;;;31.00;85.40;;;;;;5086092;28;20036;-75
2022/07/01 10:57:40;;;;;;;7.32;3.00;;;31.40;84.30;;;;;;5086234;28;20122;-75
2022/07/01 11:00:05;;;;;;;7.60;2.88;;;31.40;84.20;;;;;;5083512;28;20401;-75
2022/07/01 11:02:36;;;;;;;6.75;2.58;;;31.70;83.70;;;;;;5086855;28;20032;-75
2022/07/01 11:05:09;;;;;;;7.80;3.35;;;32.00;84.60;;;;;;5086836;28;20032;-75
2022/07/01 11:07:38;;;;;;;9.63;3.70;;;32.00;83.80;;;;;;5085913;28;20028;-75
2022/07/01 11:10:07;;;;;;;8.25;3.00;;;31.90;83.30;;;;;;5079908;28;20035;-75
2022/07/01 11:12:33;;;;;;;7.28;2.95;;;31.60;83.40;;;;;;5087220;28;20059;-75
2022/07/01 11:15:01;;;;;;;12.45;4.05;;;31.80;84.00;;;;;;5087206;28;20056;-75
2022/07/01 11:17:28;;;;;;;9.25;2.92;;;32.00;83.60;;;;;;5087505;28;20031;-75
2022/07/01 11:19:57;;;;;;;7.60;2.90;;;31.50;83.20;;;;;;5087056;28;20024;-75
2022/07/01 11:22:26;;;;;;;11.43;3.13;;;31.30;83.40;;;;;;5085206;28;20397;-74
2022/07/01 11:24:54;;;;;;;6.32;2.75;;;31.60;82.70;;;;;;5085193;28;20040;-76
2022/07/01 11:27:21;;;;;;;8.10;2.28;;;32.20;82.30;;;;;;5083863;28;20110;-76
2022/07/01 11:29:52;;;;;;;6.57;2.40;;;32.40;80.30;;;;;;5086730;28;20052;-75
2022/07/01 11:32:30;;;;;;;5.32;2.83;;;31.90;80.50;;;;;;5083258;28;20020;-75
2022/07/01 11:34:56;;;;;;;4.95;2.35;;;32.10;80.90;;;;;;5083991;28;20111;-75
2022/07/01 11:40:13;;;;;;;7.50;2.85;;;31.90;82.20;;;;;;5083756;28;20088;-76
2022/07/01 11:42:39;;;;;;;6.18;2.55;;;31.70;82.60;;;;;;5083756;28;20028;-75
2022/07/01 11:45:06;;;;;;;8.30;3.08;;;32.00;83.30;;;;;;5081573;28;20044;-75
2022/07/01 11:47:32;;;;;;;4.90;2.20;;;32.40;82.60;;;;;;5083186;28;20462;-75
2022/07/01 11:49:59;;;;;;;8.57;2.97;;;32.60;81.80;;;;;;5083200;28;20108;-75
2022/07/01 11:52:25;;;;;;;6.20;2.85;;;32.40;81.20;;;;;;5081668;28;20592;-75
2022/07/01 11:54:53;;;;;;;6.18;2.75;;;32.00;80.30;;;;;;5082831;28;20028;-75
2022/07/01 11:57:25;;;;;;;9.52;2.83;;;31.80;80.70;;;;;;5083159;28;20458;-75
2022/07/01 11:59:52;;;;;;;4.78;2.70;;;31.70;80.40;;;;;;5083113;28;20028;-75
2022/07/01 12:02:21;;;;;;;7.35;2.65;;;31.90;80.20;;;;;;5078972;28;20040;-75
2022/07/01 12:04:48;;;;;;;10.13;3.28;;;31.70;80.30;;;;;;5083242;28;20176;-76
2022/07/01 12:07:15;;;;;;;8.65;3.20;;;31.50;81.80;;;;;;5082865;28;20553;-75
2022/07/01 12:09:41;;;;;;;10.00;3.15;;;31.60;80.80;;;;;;5083130;28;20036;-75
2022/07/01 12:12:15;;;;;;;5.78;2.50;;;31.90;80.90;;;;;;5082388;28;20039;-76
2022/07/01 12:14:41;;;;;;;;;;;32.00;81.90;;;;;;5083472;28;20073;-75
2022/07/01 12:17:08;;;;;;;5.93;2.83;;;31.90;82.50;;;;;;5081611;28;20368;-75
2022/07/01 12:19:41;;;;;;;7.95;3.20;;;31.80;81.30;;;;;;5082779;28;20095;-76
2022/07/01 12:22:13;;;;;;;12.82;3.60;;;31.90;81.80;;;;;;5084426;28;20024;-76
2022/07/01 12:24:39;;;;;;;11.77;3.45;;;31.90;80.20;;;;;;5087235;28;20649;-75
2022/07/01 12:27:09;;;;;;;9.98;3.00;;;31.70;81.50;;;;;;5086449;28;20504;-75
2022/07/01 12:29:47;;;;;;;8.50;3.15;;;31.70;81.20;;;;;;5086872;28;20047;-76
2022/07/01 12:32:15;;;;;;;8.02;2.95;;;31.80;80.70;;;;;;5086170;28;20028;-76
2022/07/01 12:35:01;;;;;;;7.38;2.63;;;32.30;80.10;;;;;;5082085;28;20032;-75
2022/07/01 12:37:38;;;;;;;6.43;2.40;;;32.60;80.60;;;;;;5083860;28;20024;-76
2022/07/01 12:40:06;;;;;;;7.28;2.85;;;32.60;79.40;;;;;;5086125;28;20040;-75
2022/07/01 12:42:38;;;;;;;9.10;2.80;;;32.50;80.00;;;;;;5083557;28;20602;-76
2022/07/01 12:45:06;;;;;;;9.75;3.15;;;32.70;80.50;;;;;;5084522;28;20444;-75
2022/07/01 12:47:35;;;;;;;10.27;2.85;;;32.80;79.90;;;;;;5084530;28;20117;-76
2022/07/01 12:50:21;;;;;;;5.35;2.78;;;32.60;79.90;;;;;;5085655;28;20256;-76
2022/07/01 12:53:05;;;;;;;9.65;3.95;;;32.60;79.30;;;;;;5083838;28;20039;-75
2022/07/01 12:55:38;;;;;;;;;;;32.50;80.00;;;;;;5086786;28;20040;-75